首页
METAR-TAF:

METAR-TAF

机场 :

亚的斯亚贝巴博莱国际机场

亚的斯亚贝巴, 埃塞俄比亚

纬度: 08-59N, 经度: 038-48E, 海拔: 2355米

当前天气观测

该预报发布于2小时和51分钟前的18:00 UTC
风速6节,风向北转西北
温度 18°C
湿度 64%
气压 1026 hPa
能见度10公里或以上
多云层高于2500英尺

METAR: HAAB 231800Z 33006KT 9999 BKN025 18/11 Q1026

时间: 23:51 (20:51 UTC)

预报

该预报发布于5小时和21分钟前的15:30 UTC
预报有效从23日的 18点(UTC)到 24日的 24点(UTC)
风速8节,风向西转西南
能见度10公里或以上
多云层高于2500英尺
散云层高于7000英尺
成为
从 23日的 18点(UTC)到 23日的 23点(UTC)
能見度: 6000
多云层高于2500英尺
阵雨,

TAF: HAAB 231530Z 2318/2424 24008KT 9999 BKN025 SCT070 BECMG 2318/2323 6000 SHRA BKN025

超过4000个机场的气象观测和天气预报(METAR&TAF报告)。

可查询的气象台以黄色和红色小点在地图上表示。

将鼠标移到小点上方,可查看气象台名称。

然后点击查看天气观测和预报。

如需切换地图:点击带黑十字的绿色按钮放大地图;点击带横线的绿色按钮缩小地图;或者点击绿色箭头查看邻近地区的地图。


METAR-TAF: